createdAt,value
2022-08-24T00:00:11.402Z,1.7
2022-08-24T00:01:20.051Z,1.3
2022-08-24T00:02:27.800Z,1.5
2022-08-24T00:03:37.470Z,3
2022-08-24T00:04:47.061Z,2
2022-08-24T00:05:55.704Z,2.2
2022-08-24T00:07:05.404Z,2.7
2022-08-24T00:08:15.090Z,1.8
2022-08-24T00:09:23.761Z,2.4
2022-08-24T00:10:32.420Z,2.3
2022-08-24T00:11:40.090Z,1.9
2022-08-24T00:12:49.745Z,1.5
2022-08-24T00:13:58.429Z,1.7
2022-08-24T00:15:07.114Z,2.4
2022-08-24T00:16:16.926Z,2.6
2022-08-24T00:17:25.490Z,2.1
2022-08-24T00:18:35.177Z,2.1
2022-08-24T00:19:44.890Z,2
2022-08-24T00:20:52.576Z,2.9
2022-08-24T00:22:02.245Z,2.4
2022-08-24T00:23:10.906Z,1.9
2022-08-24T00:24:18.588Z,2.7
2022-08-24T00:25:28.276Z,1.4
2022-08-24T00:26:37.923Z,2.4
2022-08-24T00:27:46.640Z,2.7
2022-08-24T00:28:56.301Z,1.8
2022-08-24T00:30:03.977Z,1.9
2022-08-24T00:31:13.726Z,2.3
2022-08-24T00:32:23.310Z,2.1
2022-08-24T00:33:32.972Z,2
2022-08-24T00:34:42.646Z,2.6
2022-08-24T00:35:52.339Z,3.4
2022-08-24T00:37:01.020Z,10.2
2022-08-24T00:38:09.682Z,2.4
2022-08-24T00:39:17.341Z,3.4
2022-08-24T00:40:27.111Z,1.3
2022-08-24T00:41:35.663Z,2.2
2022-08-24T00:42:44.361Z,2.2
2022-08-24T00:43:54.033Z,1.9
2022-08-24T00:45:02.691Z,2.8
2022-08-24T00:46:11.429Z,2.9
2022-08-24T00:47:20.027Z,2.3
2022-08-24T00:48:28.709Z,2.3
2022-08-24T00:49:38.444Z,3
2022-08-24T00:50:48.112Z,2.4
2022-08-24T00:51:55.752Z,2.1
2022-08-24T00:53:05.441Z,2.1
2022-08-24T00:54:14.326Z,2.2
2022-08-24T00:55:23.035Z,2.6
2022-08-24T00:56:31.695Z,3.4
2022-08-24T00:57:39.387Z,2.5
2022-08-24T00:58:52.790Z,3
2022-08-24T00:59:58.777Z,2.4
2022-08-24T01:01:06.485Z,1.8
2022-08-24T01:02:16.219Z,1.8
2022-08-24T01:03:24.753Z,2.2
2022-08-24T01:04:34.400Z,2.3
2022-08-24T01:05:44.348Z,2.4
2022-08-24T01:06:53.008Z,2.5
2022-08-24T01:08:02.799Z,1.6
2022-08-24T01:09:11.316Z,2.9
2022-08-24T01:10:19.990Z,1
2022-08-24T01:11:33.669Z,1.4
2022-08-24T01:12:39.306Z,2.1
2022-08-24T01:13:49.957Z,1.7
2022-08-24T01:14:58.644Z,2.1
2022-08-24T01:16:06.343Z,1.6
2022-08-24T01:17:16.046Z,1.9
2022-08-24T01:18:25.716Z,2.4
2022-08-24T01:19:34.391Z,2.3
2022-08-24T01:20:44.066Z,1.9
2022-08-24T01:21:52.739Z,1.4
2022-08-24T01:23:02.499Z,2.9
2022-08-24T01:24:11.149Z,1.9
2022-08-24T01:25:18.811Z,1.9
2022-08-24T01:26:29.469Z,1.6
2022-08-24T01:27:38.171Z,1.5
2022-08-24T01:28:47.867Z,1.8
2022-08-24T01:29:58.523Z,1.9
2022-08-24T01:31:07.258Z,2.1
2022-08-24T01:32:15.853Z,2.1
2022-08-24T01:33:24.535Z,1.5
2022-08-24T01:34:32.318Z,2.9
2022-08-24T01:35:41.992Z,2.5
2022-08-24T01:36:51.659Z,1.3
2022-08-24T01:37:59.444Z,3.5
2022-08-24T01:39:09.067Z,2.6
2022-08-24T01:40:17.828Z,1.8
2022-08-24T01:41:29.143Z,2.4
2022-08-24T01:42:37.129Z,1.5
2022-08-24T01:43:44.802Z,1.7
2022-08-24T01:44:54.479Z,1.8
2022-08-24T01:46:04.157Z,1.8
2022-08-24T01:47:12.827Z,2
2022-08-24T01:48:23.058Z,2.2
2022-08-24T01:49:31.167Z,3.7
2022-08-24T01:50:40.861Z,1.8
2022-08-24T01:51:50.552Z,2.4
2022-08-24T01:53:07.280Z,2
2022-08-24T01:54:10.857Z,3.3
2022-08-24T01:55:22.181Z,2.4
2022-08-24T01:56:30.436Z,1.6
2022-08-24T01:57:39.890Z,2.1
2022-08-24T01:58:48.537Z,2.1
2022-08-24T01:59:58.205Z,3.7
2022-08-24T02:01:06.859Z,2.2
2022-08-24T02:02:15.571Z,3
2022-08-24T02:03:27.649Z,2.8
2022-08-24T02:04:33.014Z,2.2
2022-08-24T02:05:42.707Z,2.1
2022-08-24T02:06:51.369Z,2.3
2022-08-24T02:08:00.049Z,4.9
2022-08-24T02:09:09.990Z,2.5
2022-08-24T02:10:18.639Z,2.3
2022-08-24T02:11:27.297Z,1.2
2022-08-24T02:12:36.968Z,2.6
2022-08-24T02:13:46.554Z,2.3
2022-08-24T02:14:56.439Z,1.8
2022-08-24T02:16:05.194Z,2.3
2022-08-24T02:17:14.793Z,2
2022-08-24T02:18:24.484Z,1.7
2022-08-24T02:19:34.150Z,1.6
2022-08-24T02:20:42.863Z,2.1
2022-08-24T02:21:51.541Z,2.4
2022-08-24T02:23:00.239Z,2.1
2022-08-24T02:24:09.920Z,2.1
2022-08-24T02:25:18.632Z,2.5
2022-08-24T02:26:28.409Z,2.2
2022-08-24T02:27:38.973Z,2.5
2022-08-24T02:28:47.771Z,3
2022-08-24T02:29:57.467Z,2.7
2022-08-24T02:31:06.228Z,1.8
2022-08-24T02:32:13.831Z,2.6
2022-08-24T02:33:23.526Z,1.9
2022-08-24T02:34:32.211Z,5.4
2022-08-24T02:35:40.880Z,3.2
2022-08-24T02:36:50.570Z,2.2
2022-08-24T02:37:59.378Z,2.4
2022-08-24T02:39:08.049Z,2.2
2022-08-24T02:40:16.983Z,2.8
2022-08-24T02:41:25.610Z,1.9
2022-08-24T02:42:35.232Z,2.6
2022-08-24T02:43:43.916Z,1.8
2022-08-24T02:44:53.726Z,2.6
2022-08-24T02:46:03.262Z,3.3
2022-08-24T02:47:11.894Z,2.1
2022-08-24T02:48:20.566Z,3.3
2022-08-24T02:49:29.267Z,1.2
2022-08-24T02:50:37.956Z,2.7
2022-08-24T02:51:48.621Z,1.3
2022-08-24T02:52:57.307Z,3.6
2022-08-24T02:54:04.912Z,2.4
2022-08-24T02:55:14.820Z,1.8
2022-08-24T02:56:24.493Z,2.2
2022-08-24T02:57:34.177Z,2.1
2022-08-24T02:58:44.842Z,2.2
2022-08-24T02:59:53.485Z,1.9
2022-08-24T03:01:03.205Z,3.8
2022-08-24T03:02:13.896Z,2.5
2022-08-24T03:03:21.526Z,1.8
2022-08-24T03:04:31.223Z,2.2
2022-08-24T03:05:39.972Z,2.1
2022-08-24T03:06:47.707Z,2.7
2022-08-24T03:07:57.374Z,2
2022-08-24T03:09:07.126Z,3.1
2022-08-24T03:10:16.813Z,1.3
2022-08-24T03:11:27.899Z,2.1
2022-08-24T03:12:34.394Z,2.2
2022-08-24T03:13:44.066Z,2.4
2022-08-24T03:14:52.803Z,2.1
2022-08-24T03:16:02.556Z,2.5
2022-08-24T03:17:11.147Z,2.5
2022-08-24T03:18:18.954Z,1.8
2022-08-24T03:19:29.632Z,2.6
2022-08-24T03:20:39.289Z,2.2
2022-08-24T03:21:46.983Z,2.3
2022-08-24T03:22:56.648Z,2.3
2022-08-24T03:24:05.375Z,2
2022-08-24T03:25:14.040Z,2.5
2022-08-24T03:26:22.712Z,2.7
2022-08-24T03:27:31.374Z,2.3
2022-08-24T03:28:41.108Z,3
2022-08-24T03:29:51.776Z,2.6
2022-08-24T03:30:59.442Z,2
2022-08-24T03:32:08.083Z,3.5
2022-08-24T03:33:16.739Z,2.5
2022-08-24T03:34:27.403Z,1.8
2022-08-24T03:35:37.115Z,2.7
2022-08-24T03:36:44.777Z,2
2022-08-24T03:37:54.450Z,2.8
2022-08-24T03:39:03.133Z,2.2
2022-08-24T03:40:22.234Z,2.2
2022-08-24T03:41:23.447Z,1.6
2022-08-24T03:42:32.150Z,1.6
2022-08-24T03:43:40.827Z,2.4
2022-08-24T03:44:49.521Z,2.8
2022-08-24T03:45:57.212Z,1.9
2022-08-24T03:47:07.016Z,2.2
2022-08-24T03:48:14.840Z,2.5
2022-08-24T03:49:24.512Z,2.5
2022-08-24T03:50:33.170Z,2.4
2022-08-24T03:51:40.823Z,2.8
2022-08-24T03:52:50.509Z,3
2022-08-24T03:53:59.214Z,3.2
2022-08-24T03:55:07.913Z,2.1
2022-08-24T03:56:16.581Z,2.7
2022-08-24T03:57:24.223Z,3.3
2022-08-24T03:58:33.983Z,2.7
2022-08-24T03:59:46.521Z,2.1
2022-08-24T04:00:52.317Z,2.9
2022-08-24T04:02:02.011Z,1.9
2022-08-24T04:03:10.638Z,1.9
2022-08-24T04:04:19.357Z,1.9
2022-08-24T04:05:28.031Z,2.2
2022-08-24T04:06:37.660Z,2.3
2022-08-24T04:07:47.318Z,2.9
2022-08-24T04:08:55.963Z,2.4
2022-08-24T04:10:04.650Z,2.6
2022-08-24T04:11:14.346Z,3.1
2022-08-24T04:12:23.097Z,2.5
2022-08-24T04:13:31.686Z,2.6
2022-08-24T04:14:41.399Z,2.6
2022-08-24T04:15:50.105Z,3
2022-08-24T04:16:59.780Z,2.3
2022-08-24T04:18:08.389Z,2.9
2022-08-24T04:19:16.055Z,1.9
2022-08-24T04:20:25.797Z,2.4
2022-08-24T04:21:35.349Z,2.6
2022-08-24T04:22:43.209Z,2.9
2022-08-24T04:23:52.891Z,3
2022-08-24T04:25:00.583Z,2.4
2022-08-24T04:26:11.265Z,2.4
2022-08-24T04:27:19.984Z,2.9
2022-08-24T04:28:27.647Z,2.2
2022-08-24T04:29:37.322Z,3.4
2022-08-24T04:30:46.021Z,2.2
2022-08-24T04:31:55.755Z,1.6
2022-08-24T04:33:04.698Z,3.2
2022-08-24T04:34:12.091Z,2.2
2022-08-24T04:35:21.796Z,2.3
2022-08-24T04:36:30.457Z,2.4
2022-08-24T04:37:40.296Z,2.3
2022-08-24T04:38:50.031Z,2.1
2022-08-24T04:39:58.831Z,2.8
2022-08-24T04:41:08.456Z,3.4
2022-08-24T04:42:19.108Z,3.7
2022-08-24T04:43:28.782Z,3
2022-08-24T04:44:38.452Z,3.3
2022-08-24T04:45:47.211Z,3.2
2022-08-24T04:46:54.806Z,2.1
2022-08-24T04:48:04.474Z,2.7
2022-08-24T04:49:14.186Z,2.8
2022-08-24T04:50:23.949Z,2.5
2022-08-24T04:51:36.195Z,2.2
2022-08-24T04:52:41.302Z,2.3
2022-08-24T04:53:50.979Z,1.9
2022-08-24T04:54:59.626Z,2.8
2022-08-24T04:56:07.314Z,2
2022-08-24T04:57:18.286Z,2.5
2022-08-24T04:58:25.656Z,1.4
2022-08-24T04:59:35.317Z,2.3
2022-08-24T05:00:44.056Z,2.4
2022-08-24T05:01:51.708Z,3.2
2022-08-24T05:03:01.386Z,3.2
2022-08-24T05:04:11.051Z,2.9
2022-08-24T05:05:18.727Z,2.7
2022-08-24T05:06:28.376Z,3.2
2022-08-24T05:07:38.060Z,2
2022-08-24T05:08:46.743Z,3.4
2022-08-24T05:09:55.428Z,3.7
2022-08-24T05:11:05.082Z,1.8
2022-08-24T05:12:14.782Z,1.8
2022-08-24T05:13:24.481Z,2.7
2022-08-24T05:14:32.151Z,2.3
2022-08-24T05:15:41.847Z,2
2022-08-24T05:16:52.872Z,3
2022-08-24T05:18:00.172Z,1.6
2022-08-24T05:19:08.862Z,2.5
2022-08-24T05:20:16.514Z,2.9
2022-08-24T05:21:26.183Z,2.5
2022-08-24T05:22:35.866Z,2.5
2022-08-24T05:23:45.513Z,3.2
2022-08-24T05:24:55.343Z,2.4
2022-08-24T05:26:03.994Z,3.1
2022-08-24T05:27:14.118Z,2.3
2022-08-24T05:28:22.304Z,2.6
2022-08-24T05:29:30.935Z,2.3
2022-08-24T05:30:42.800Z,2.5
2022-08-24T05:31:50.483Z,2.8
2022-08-24T05:33:00.078Z,2.8
2022-08-24T05:34:09.705Z,1.4
2022-08-24T05:35:19.403Z,2.7
2022-08-24T05:36:29.102Z,2.2
2022-08-24T05:37:37.778Z,3.1
2022-08-24T05:38:45.456Z,1.7
2022-08-24T05:39:55.206Z,3.1
2022-08-24T05:41:04.780Z,1.9
2022-08-24T05:42:12.433Z,1.8
2022-08-24T05:43:22.086Z,3.8
2022-08-24T05:44:31.744Z,1.3
2022-08-24T05:45:41.425Z,3.1
2022-08-24T05:46:51.213Z,2.7
2022-08-24T05:47:59.744Z,2.9
2022-08-24T05:49:08.432Z,2.4
2022-08-24T05:50:16.121Z,2.9
2022-08-24T05:51:25.860Z,3.1
2022-08-24T05:52:35.526Z,3.9
2022-08-24T05:53:45.227Z,2.5
2022-08-24T05:54:54.906Z,2.9
2022-08-24T05:56:03.580Z,1.5
2022-08-24T05:57:12.282Z,2
2022-08-24T05:58:23.122Z,2.8
2022-08-24T05:59:31.624Z,1.8
2022-08-24T06:00:41.337Z,2
2022-08-24T06:01:50.022Z,2.1
2022-08-24T06:02:58.753Z,1.4
2022-08-24T06:04:08.337Z,2.7
2022-08-24T06:05:17.019Z,2.3
2022-08-24T06:06:25.683Z,2.3
2022-08-24T06:07:34.336Z,1.5
2022-08-24T06:08:44.005Z,2.3
2022-08-24T06:09:52.671Z,2.2
2022-08-24T06:11:03.343Z,1.9
2022-08-24T06:12:11.972Z,2.4
2022-08-24T06:13:21.653Z,1.1
2022-08-24T06:14:31.316Z,1.5
2022-08-24T06:15:41.081Z,1.6
2022-08-24T06:16:51.933Z,2.4
2022-08-24T06:18:00.534Z,2.7
2022-08-24T06:19:10.172Z,1.7
2022-08-24T06:20:18.855Z,2.2
2022-08-24T06:21:28.114Z,1.5
2022-08-24T06:22:37.199Z,1.4
2022-08-24T06:23:45.860Z,2
2022-08-24T06:24:54.530Z,1.2
2022-08-24T06:26:03.175Z,1.8
2022-08-24T06:27:12.865Z,1.3
2022-08-24T06:28:22.670Z,1.5
2022-08-24T06:29:31.340Z,1.4
2022-08-24T06:30:39.013Z,1.6
2022-08-24T06:31:52.138Z,1.9
2022-08-24T06:32:59.393Z,2.1
2022-08-24T06:34:08.126Z,1.5
2022-08-24T06:35:16.779Z,2.9
2022-08-24T06:36:25.421Z,1.2
2022-08-24T06:37:35.109Z,2.7
2022-08-24T06:38:46.830Z,1.5
2022-08-24T06:39:54.900Z,1.4
2022-08-24T06:41:04.183Z,2.1
2022-08-24T06:42:12.823Z,0.9
2022-08-24T06:43:21.493Z,0.8
2022-08-24T06:44:30.248Z,1.8
2022-08-24T06:45:39.943Z,1.1
2022-08-24T06:46:49.634Z,2.4
2022-08-24T06:47:58.279Z,3.1
2022-08-24T06:49:05.923Z,2.2
2022-08-24T06:50:15.601Z,0.8
2022-08-24T06:51:25.294Z,1.7
2022-08-24T06:52:33.949Z,1.9
2022-08-24T06:53:42.605Z,1.3
2022-08-24T06:54:52.282Z,1.2
2022-08-24T06:56:01.988Z,2
2022-08-24T06:57:10.673Z,1.3
2022-08-24T06:58:18.351Z,2.7
2022-08-24T06:59:28.014Z,1.6
2022-08-24T07:00:36.671Z,1.4
2022-08-24T07:01:46.369Z,2.2
2022-08-24T07:02:55.146Z,0.9
2022-08-24T07:04:02.782Z,1.5
2022-08-24T07:05:11.461Z,1.9
2022-08-24T07:06:20.137Z,1.3
2022-08-24T07:07:27.822Z,1.2
2022-08-24T07:08:37.504Z,1.7
2022-08-24T07:09:46.173Z,2.4
2022-08-24T07:10:55.883Z,1.3
2022-08-24T07:12:05.555Z,1
2022-08-24T07:13:15.261Z,0.7
2022-08-24T07:14:23.959Z,1.2
2022-08-24T07:15:32.630Z,0.8
2022-08-24T07:16:41.293Z,0.8
2022-08-24T07:17:50.960Z,0.9
2022-08-24T07:19:00.641Z,0.6
2022-08-24T07:20:09.369Z,1.7
2022-08-24T07:21:19.025Z,0.6
2022-08-24T07:22:27.708Z,1.4
2022-08-24T07:23:37.917Z,0.5
2022-08-24T07:24:47.024Z,0.5
2022-08-24T07:25:58.154Z,0.3
2022-08-24T07:27:07.822Z,0.6
2022-08-24T07:28:16.491Z,0.7
2022-08-24T07:30:04.754Z,0.6
2022-08-24T07:30:37.798Z,0.3
2022-08-24T07:31:47.616Z,1.1
2022-08-24T07:32:57.280Z,0.7
2022-08-24T07:34:05.968Z,1.3
2022-08-24T07:35:15.640Z,0.6
2022-08-24T07:36:25.298Z,0.5
2022-08-24T07:37:41.207Z,0.9
2022-08-24T07:38:45.654Z,0.7
2022-08-24T07:39:54.350Z,1.3
2022-08-24T07:41:33.630Z,1.9
2022-08-24T07:42:20.954Z,0.3
2022-08-24T07:43:24.229Z,0.8
2022-08-24T07:44:33.922Z,0.5
2022-08-24T07:45:42.644Z,1.3
2022-08-24T07:46:50.414Z,1
2022-08-24T07:49:12.728Z,0.8
2022-08-24T07:50:19.266Z,0.3
2022-08-24T07:51:28.015Z,0.5
2022-08-24T07:52:36.631Z,1.1
2022-08-24T07:53:53.336Z,0.9
2022-08-24T07:54:57.068Z,0.8
2022-08-24T07:56:05.743Z,0.7
2022-08-24T07:57:15.405Z,0.5
2022-08-24T07:58:24.077Z,0.6
2022-08-24T07:59:32.733Z,1.3
2022-08-24T08:00:41.439Z,0.6
2022-08-24T08:01:49.292Z,0.4
2022-08-24T08:02:58.975Z,0.8
2022-08-24T08:04:08.597Z,0.4
2022-08-24T08:05:17.272Z,0.5
2022-08-24T08:06:26.954Z,0.8
2022-08-24T08:07:35.613Z,0.4
2022-08-24T08:08:45.295Z,0.5
2022-08-24T08:09:53.041Z,0.8
2022-08-24T08:11:01.720Z,1.2
2022-08-24T08:12:11.421Z,1
2022-08-24T08:13:20.091Z,1.1
2022-08-24T08:14:28.791Z,0.8
2022-08-24T08:15:38.469Z,0.4
2022-08-24T08:16:47.103Z,1.2
2022-08-24T08:17:56.788Z,0.6
2022-08-24T08:19:12.762Z,0.4
2022-08-24T08:20:14.087Z,3.7
2022-08-24T08:21:24.732Z,0.3
2022-08-24T08:22:34.395Z,0.4
2022-08-24T08:23:44.113Z,0.8
2022-08-24T08:24:54.804Z,0.8
2022-08-24T08:26:03.454Z,0.7
2022-08-24T08:27:12.130Z,1.7
2022-08-24T08:28:25.564Z,0.6
2022-08-24T08:29:30.440Z,1.3
2022-08-24T08:30:40.171Z,0.9
2022-08-24T08:31:48.821Z,0.7
2022-08-24T08:32:56.479Z,1.2
2022-08-24T08:34:06.163Z,0.7
2022-08-24T08:35:14.973Z,0.9
2022-08-24T08:36:24.662Z,0.9
2022-08-24T08:38:43.008Z,0.7
2022-08-24T08:39:52.708Z,0.7
2022-08-24T08:41:01.381Z,1
2022-08-24T08:42:10.048Z,2.8
2022-08-24T08:43:19.718Z,0.9
2022-08-24T08:44:29.383Z,0.8
2022-08-24T08:45:38.064Z,0.7
2022-08-24T08:46:46.752Z,0.7
2022-08-24T08:47:55.443Z,0.8
2022-08-24T08:49:05.139Z,0.3
2022-08-24T08:50:14.800Z,0.4
2022-08-24T08:51:22.454Z,1.2
2022-08-24T08:52:32.140Z,0.4
2022-08-24T08:53:40.799Z,0.4
2022-08-24T08:54:50.449Z,0.5
2022-08-24T08:55:59.112Z,0.4
2022-08-24T08:57:06.780Z,0.7
2022-08-24T08:58:17.452Z,0.9
2022-08-24T08:59:26.137Z,0.6
2022-08-24T09:00:33.855Z,0.5
2022-08-24T09:01:44.330Z,0.5
2022-08-24T09:02:53.164Z,0.3
2022-08-24T09:04:01.878Z,0.6
2022-08-24T09:05:10.520Z,0.7
2022-08-24T09:06:18.184Z,0.4
2022-08-24T09:07:26.871Z,0.3
2022-08-24T09:08:35.582Z,0.8
2022-08-24T09:09:44.419Z,0.6
2022-08-24T09:10:54.004Z,0.2
2022-08-24T09:12:03.687Z,0.7
2022-08-24T09:13:13.411Z,0.4
2022-08-24T09:14:22.076Z,0.4
2022-08-24T09:15:29.783Z,0.7
2022-08-24T09:16:39.478Z,0.6
2022-08-24T09:17:48.085Z,0.6
2022-08-24T09:18:57.758Z,0.4
2022-08-24T09:20:07.427Z,0.6
2022-08-24T09:21:16.110Z,0.6
2022-08-24T09:22:24.782Z,0.3
2022-08-24T09:23:34.485Z,1
2022-08-24T09:24:43.163Z,3.3
2022-08-24T09:25:52.832Z,0.2
2022-08-24T09:27:01.627Z,0.4
2022-08-24T09:28:10.290Z,0.4
2022-08-24T09:29:20.950Z,0.9
2022-08-24T09:30:29.625Z,0.7
2022-08-24T09:31:39.301Z,0.5
2022-08-24T09:32:49.555Z,1.5
2022-08-24T09:33:56.666Z,0.1
2022-08-24T09:35:06.333Z,0.4
2022-08-24T09:36:16.028Z,0.5
2022-08-24T09:37:24.704Z,0.6
2022-08-24T09:38:34.441Z,0.4
2022-08-24T09:39:44.235Z,0.3
2022-08-24T09:40:53.827Z,0.1
2022-08-24T09:42:03.488Z,0.4
2022-08-24T09:43:12.166Z,0.3
2022-08-24T09:44:21.864Z,0.3
2022-08-24T09:45:31.547Z,0.7
2022-08-24T09:46:40.185Z,0.2
2022-08-24T09:47:48.861Z,0.9
2022-08-24T09:48:56.529Z,0.6
2022-08-24T09:50:06.230Z,0.5
2022-08-24T09:51:14.918Z,0.3
2022-08-24T09:52:23.593Z,0.2
2022-08-24T09:53:33.268Z,0.4
2022-08-24T09:54:42.937Z,0.7
2022-08-24T09:55:52.636Z,0.3
2022-08-24T09:57:11.961Z,0.5
2022-08-24T09:58:12.077Z,0.2
2022-08-24T09:59:21.770Z,0.5
2022-08-24T10:00:30.434Z,1
2022-08-24T10:01:38.180Z,0.8
2022-08-24T10:02:47.829Z,0.2
2022-08-24T10:03:56.495Z,0.3
2022-08-24T10:05:05.283Z,0.9
2022-08-24T10:06:13.954Z,0.3
2022-08-24T10:07:23.617Z,0.1
2022-08-24T10:08:33.330Z,0.8
2022-08-24T10:09:43.016Z,0.2
2022-08-24T10:10:51.687Z,0.6
2022-08-24T10:12:01.388Z,0.4
2022-08-24T10:13:11.064Z,0.3
2022-08-24T10:14:20.740Z,0.1
2022-08-24T10:15:29.397Z,0.8
2022-08-24T10:16:37.139Z,0.5
2022-08-24T10:17:46.789Z,0.2
2022-08-24T10:18:55.495Z,0.1
2022-08-24T10:20:05.155Z,1.4
2022-08-24T10:21:14.847Z,0.2
2022-08-24T10:22:23.516Z,0.1
2022-08-24T10:23:33.194Z,0.2
2022-08-24T10:24:42.934Z,0.6
2022-08-24T10:25:51.625Z,0.1
2022-08-24T10:27:02.277Z,0.3
2022-08-24T10:28:10.948Z,0.7
2022-08-24T10:29:18.614Z,0.4
2022-08-24T10:30:28.383Z,0.2
2022-08-24T10:31:37.166Z,0.2
2022-08-24T10:32:46.804Z,0.5
2022-08-24T10:33:56.472Z,0.3
2022-08-24T10:35:04.138Z,0.5
2022-08-24T10:36:14.836Z,0.9
2022-08-24T10:37:24.501Z,1.1
2022-08-24T10:38:34.149Z,0.5
2022-08-24T10:39:43.958Z,0.7
2022-08-24T10:40:53.470Z,0.1
2022-08-24T10:42:03.204Z,0.3
2022-08-24T10:43:11.877Z,0.1
2022-08-24T10:44:19.533Z,1.5
2022-08-24T10:45:29.239Z,0.2
2022-08-24T10:46:37.881Z,0.2
2022-08-24T10:47:46.665Z,0.2
2022-08-24T10:48:56.367Z,0.3
2022-08-24T10:50:05.009Z,0.2
2022-08-24T10:51:14.666Z,0.4
2022-08-24T10:52:24.448Z,0.6
2022-08-24T10:53:32.164Z,0.3
2022-08-24T10:54:41.835Z,0.6
2022-08-24T10:55:51.521Z,0.2
2022-08-24T10:57:00.213Z,0.3
2022-08-24T10:58:09.888Z,0.6
2022-08-24T10:59:19.581Z,0.2
2022-08-24T11:00:29.282Z,0.6
2022-08-24T11:01:38.099Z,0.4
2022-08-24T11:02:45.645Z,0.3
2022-08-24T11:03:55.320Z,0.1
2022-08-24T11:05:05.024Z,0.4
2022-08-24T11:06:13.681Z,0.2
2022-08-24T11:07:23.359Z,0.9
2022-08-24T11:08:33.022Z,0.5
2022-08-24T11:09:41.701Z,0.3
2022-08-24T11:10:50.448Z,0.3
2022-08-24T11:11:58.297Z,0.9
2022-08-24T11:13:07.981Z,0.6
2022-08-24T11:14:16.640Z,0.8
2022-08-24T11:15:25.399Z,1.2
2022-08-24T11:16:35.232Z,0.2
2022-08-24T11:17:43.798Z,0.5
2022-08-24T11:18:52.462Z,0.4
2022-08-24T11:20:02.154Z,0.2
2022-08-24T11:21:09.832Z,0.4
2022-08-24T11:22:19.524Z,0.4
2022-08-24T11:23:31.647Z,0.3
2022-08-24T11:24:37.826Z,0.5
2022-08-24T11:25:47.487Z,0.1
2022-08-24T11:26:57.177Z,0.7
2022-08-24T11:28:06.046Z,0.1
2022-08-24T11:29:15.544Z,0.4
2022-08-24T11:30:24.235Z,0.4
2022-08-24T11:31:35.898Z,0.5
2022-08-24T11:32:43.573Z,3.6
2022-08-24T11:33:52.228Z,0.2
2022-08-24T11:35:01.955Z,0.2
2022-08-24T11:36:10.608Z,0.2
2022-08-24T11:37:23.762Z,0.3
2022-08-24T11:38:30.959Z,0.3
2022-08-24T11:39:39.642Z,0.4
2022-08-24T11:40:49.310Z,0.2
2022-08-24T11:41:57.970Z,0.3
2022-08-24T11:43:07.630Z,0.2
2022-08-24T11:44:16.265Z,0.1
2022-08-24T11:45:25.112Z,0.5
2022-08-24T11:46:34.871Z,0.3
2022-08-24T11:47:44.549Z,0.4
2022-08-24T11:48:53.264Z,0.5
2022-08-24T11:50:02.969Z,0
2022-08-24T11:51:11.659Z,0.4
2022-08-24T11:52:21.360Z,0.7
2022-08-24T11:53:31.036Z,0.1
2022-08-24T11:54:38.693Z,0.1
2022-08-24T11:55:51.839Z,0.4
2022-08-24T11:56:59.166Z,0.3
2022-08-24T11:58:07.836Z,0.9
2022-08-24T11:59:18.507Z,0.1
2022-08-24T12:00:26.163Z,0.4
2022-08-24T12:01:35.986Z,0.1
2022-08-24T12:02:46.610Z,0.1
2022-08-24T12:03:54.184Z,0.3
2022-08-24T12:05:03.867Z,0.4
2022-08-24T12:06:12.515Z,0.2
2022-08-24T12:07:21.181Z,0.2
2022-08-24T12:08:29.867Z,0.1
2022-08-24T12:09:36.576Z,0.2
2022-08-24T12:10:46.283Z,0.2
2022-08-24T12:11:54.957Z,0.1
2022-08-24T12:13:02.643Z,0.5
2022-08-24T12:14:12.411Z,0
2022-08-24T12:15:22.097Z,0.2
2022-08-24T12:16:31.827Z,0.6
2022-08-24T12:17:40.441Z,0.7
2022-08-24T12:18:49.127Z,0.2
2022-08-24T12:19:58.857Z,0.2
2022-08-24T12:21:10.962Z,0.1
2022-08-24T12:22:17.183Z,0.2
2022-08-24T12:23:26.870Z,0.1
2022-08-24T12:24:35.530Z,0.1
2022-08-24T12:25:44.233Z,0.4
2022-08-24T12:26:52.915Z,0.2
2022-08-24T12:28:01.626Z,0.6
2022-08-24T12:29:11.318Z,0.2
2022-08-24T12:30:20.006Z,0.1
2022-08-24T12:31:27.851Z,0.3
2022-08-24T12:32:37.482Z,0.6
2022-08-24T12:33:47.158Z,0.1
2022-08-24T12:34:58.674Z,0
2022-08-24T12:36:06.525Z,0.1
2022-08-24T12:37:16.622Z,0.3
2022-08-24T12:38:25.864Z,0.5
2022-08-24T12:39:34.509Z,0.4
2022-08-24T12:40:43.187Z,0.3
2022-08-24T12:41:52.822Z,0.1
2022-08-24T12:43:01.484Z,0.1
2022-08-24T12:44:10.149Z,0.3
2022-08-24T12:45:19.884Z,0.2
2022-08-24T12:46:27.559Z,0.7
2022-08-24T12:47:37.217Z,0.2
2022-08-24T12:48:47.047Z,0.2
2022-08-24T12:49:55.708Z,0.3
2022-08-24T12:51:04.470Z,0.2
2022-08-24T12:52:14.127Z,0.5
2022-08-24T12:53:23.781Z,0.4
2022-08-24T12:54:34.478Z,0.4
2022-08-24T12:55:45.952Z,0.1
2022-08-24T12:56:54.785Z,0.2
2022-08-24T12:58:30.334Z,0.1
2022-08-24T12:59:14.167Z,0
2022-08-24T13:00:23.933Z,0.3
2022-08-24T13:01:33.856Z,0.2
2022-08-24T13:02:47.680Z,0
2022-08-24T13:03:53.994Z,0.2
2022-08-24T13:05:04.657Z,1.6
2022-08-24T13:06:14.394Z,0.1
2022-08-24T13:07:24.078Z,0.4
2022-08-24T13:08:32.747Z,1
2022-08-24T13:09:42.436Z,0.8
2022-08-24T13:10:52.170Z,0.2
2022-08-24T13:12:00.862Z,0.3
2022-08-24T13:13:09.527Z,0.8
2022-08-24T13:14:18.187Z,0.7
2022-08-24T13:15:27.863Z,0.3
2022-08-24T13:16:36.535Z,0.2
2022-08-24T13:17:45.202Z,0.5
2022-08-24T13:18:53.881Z,0.1
2022-08-24T13:20:03.559Z,0.6
2022-08-24T13:21:13.240Z,0.2
2022-08-24T13:22:21.917Z,0.6
2022-08-24T13:23:31.616Z,0
2022-08-24T13:24:41.306Z,0.3
2022-08-24T13:25:50.055Z,0.1
2022-08-24T13:26:57.711Z,0.1
2022-08-24T13:28:07.414Z,0.5
2022-08-24T13:29:16.106Z,0.4
2022-08-24T13:30:25.797Z,0.4
2022-08-24T13:31:35.597Z,0.1
2022-08-24T13:32:45.220Z,0.4
2022-08-24T13:33:53.922Z,0.3
2022-08-24T13:35:00.773Z,0.2
2022-08-24T13:36:08.431Z,0.1
2022-08-24T13:37:18.104Z,0.1
2022-08-24T13:38:27.784Z,0.8
2022-08-24T13:39:36.452Z,0.2
2022-08-24T13:40:45.144Z,0.5
2022-08-24T13:41:53.863Z,0.7
2022-08-24T13:43:03.532Z,0.2
2022-08-24T13:44:12.209Z,0.5
2022-08-24T13:45:20.925Z,0.2
2022-08-24T13:46:30.683Z,0.3
2022-08-24T13:47:40.322Z,0.1
2022-08-24T13:48:48.095Z,0.1
2022-08-24T13:49:58.777Z,0.1
2022-08-24T13:51:08.467Z,0.4
2022-08-24T13:52:18.268Z,0.5
2022-08-24T13:53:27.917Z,0
2022-08-24T13:54:38.173Z,0.5
2022-08-24T13:55:46.285Z,0.4
2022-08-24T13:56:55.039Z,0.1
2022-08-24T13:58:04.983Z,0.6
2022-08-24T13:59:14.438Z,0.4
2022-08-24T14:00:24.100Z,0.1
2022-08-24T14:01:32.858Z,0.4
2022-08-24T14:02:42.487Z,0
2022-08-24T14:03:51.190Z,0.2
2022-08-24T14:05:00.951Z,1
2022-08-24T14:06:09.585Z,0.1
2022-08-24T14:07:19.384Z,0.1
2022-08-24T14:08:29.077Z,0.4
2022-08-24T14:09:38.750Z,0
2022-08-24T14:10:48.485Z,0.2
2022-08-24T14:11:59.155Z,0
2022-08-24T14:13:09.864Z,0
2022-08-24T14:14:18.540Z,0.1
2022-08-24T14:15:27.241Z,0.1
2022-08-24T14:16:36.947Z,0.2
2022-08-24T14:17:46.646Z,0.2
2022-08-24T14:18:55.306Z,0.5
2022-08-24T14:20:04.996Z,0.1
2022-08-24T14:21:17.759Z,0.1
2022-08-24T14:22:23.362Z,0.3
2022-08-24T14:23:33.043Z,0.1
2022-08-24T14:24:45.863Z,0.1
2022-08-24T14:25:52.431Z,0
2022-08-24T14:27:02.136Z,0.1
2022-08-24T14:28:09.818Z,0.3
2022-08-24T14:29:19.560Z,0.2
2022-08-24T14:30:29.192Z,0.4
2022-08-24T14:31:37.900Z,0.2
2022-08-24T14:32:46.576Z,0.1
2022-08-24T14:33:54.322Z,0.1
2022-08-24T14:35:03.977Z,0.4
2022-08-24T14:36:12.607Z,0.2
2022-08-24T14:37:21.257Z,0.1
2022-08-24T14:38:30.957Z,0.1
2022-08-24T14:39:39.682Z,0.2
2022-08-24T14:40:48.345Z,0.3
2022-08-24T14:41:57.083Z,0.2
2022-08-24T14:43:04.743Z,0.1
2022-08-24T14:44:14.460Z,0.1
2022-08-24T14:45:23.159Z,0.2
2022-08-24T14:46:33.497Z,0.1
2022-08-24T14:47:42.526Z,0.1
2022-08-24T14:48:51.191Z,0.2
2022-08-24T14:50:01.883Z,0.1
2022-08-24T14:51:10.570Z,0.1
2022-08-24T14:52:18.284Z,0.1
2022-08-24T14:53:28.966Z,0
2022-08-24T14:54:38.665Z,0.2
2022-08-24T14:55:47.465Z,0.3
2022-08-24T14:56:58.145Z,0.3
2022-08-24T14:58:06.827Z,0.2
2022-08-24T14:59:16.485Z,0.7
2022-08-24T15:00:26.169Z,0.1
2022-08-24T15:01:33.860Z,0.1
2022-08-24T15:02:43.510Z,0.1
2022-08-24T15:03:53.159Z,0
2022-08-24T15:05:00.893Z,0.8
2022-08-24T15:06:26.047Z,0.1
2022-08-24T15:07:20.331Z,0.1
2022-08-24T15:08:29.996Z,0.8
2022-08-24T15:09:38.651Z,0.1
2022-08-24T15:10:46.302Z,0.2
2022-08-24T15:11:55.981Z,0.2
2022-08-24T15:13:04.644Z,0.4
2022-08-24T15:14:15.161Z,0
2022-08-24T15:15:24.987Z,0.1
2022-08-24T15:16:33.640Z,0.4
2022-08-24T15:17:42.329Z,0.3
2022-08-24T15:18:51.035Z,0.1
2022-08-24T15:19:59.704Z,0.1
2022-08-24T15:21:09.424Z,0.2
2022-08-24T15:22:18.104Z,0
2022-08-24T15:23:26.783Z,0.1
2022-08-24T15:24:35.452Z,0.1
2022-08-24T15:25:45.197Z,1.4
2022-08-24T15:26:54.881Z,0.4
2022-08-24T15:28:03.866Z,0.1
2022-08-24T15:29:11.407Z,0.2
2022-08-24T15:30:21.085Z,0.2
2022-08-24T15:31:29.794Z,0.1
2022-08-24T15:32:38.429Z,0.4
2022-08-24T15:33:48.106Z,0
2022-08-24T15:34:56.736Z,0.4
2022-08-24T15:36:05.467Z,0.1
2022-08-24T15:37:14.155Z,0.3
2022-08-24T15:38:23.820Z,0
2022-08-24T15:39:33.507Z,0.1
2022-08-24T15:40:45.164Z,0.6
2022-08-24T15:41:52.886Z,0.2
2022-08-24T15:43:02.549Z,0.6
2022-08-24T15:44:11.226Z,0.2
2022-08-24T15:45:20.887Z,0.1
2022-08-24T15:46:30.599Z,0.2
2022-08-24T15:47:39.260Z,0.1
2022-08-24T15:48:48.926Z,0.6
2022-08-24T15:49:58.617Z,0
2022-08-24T15:51:07.282Z,0.2
2022-08-24T15:52:16.977Z,0.1
2022-08-24T15:53:26.675Z,0.1
2022-08-24T15:54:35.372Z,0.2
2022-08-24T15:55:44.038Z,0
2022-08-24T15:56:51.696Z,0.3
2022-08-24T15:58:02.483Z,0.2